Time;durP1;ratioP1;P1;durP2;ratioP2;P2;SDS_P1;SDS_P2;PMS_P1;PMS_P2;Temp;Humidity;BMP_temperature;BMP_pressure;BME280_temperature;BME280_humidity;BME280_pressure;Samples;Min_cycle;Max_cycle;Signal;HPM_P1;HPM_P2
2022/08/06 00:00:50;;;;;;;2.63;0.90;;;;;;;15.98;68.40;102216.59;6013137;29;20238;-68
2022/08/06 00:04:10;;;;;;;2.88;1.10;;;;;;;15.98;68.37;102213.88;6016476;29;20227;-69
2022/08/06 00:07:31;;;;;;;1.60;0.93;;;;;;;15.91;67.91;102211.84;6014924;29;21311;-68
2022/08/06 00:10:52;;;;;;;2.10;1.20;;;;;;;15.88;67.89;102221.13;6013331;29;20242;-68
2022/08/06 00:14:14;;;;;;;3.45;1.38;;;;;;;15.88;68.29;102225.69;6014975;29;20238;-68
2022/08/06 00:17:38;;;;;;;1.73;1.00;;;;;;;15.86;68.89;102225.84;6012194;29;20238;-68
2022/08/06 00:20:58;;;;;;;5.50;1.88;;;;;;;15.85;68.18;102224.13;6015848;29;20673;-68
2022/08/06 00:24:20;;;;;;;2.08;1.13;;;;;;;15.68;69.40;102230.22;6010766;29;20258;-68
2022/08/06 00:27:41;;;;;;;2.63;1.40;;;;;;;15.52;69.25;102227.09;6016930;29;20234;-68
2022/08/06 00:31:04;;;;;;;1.10;0.63;;;;;;;15.69;69.62;102236.50;6016419;29;20246;-68
2022/08/06 00:34:27;;;;;;;2.80;1.80;;;;;;;15.72;69.44;102236.25;6015943;29;20609;-68
2022/08/06 00:37:48;;;;;;;2.90;1.20;;;;;;;15.62;69.47;102241.63;6014128;29;20235;-69
2022/08/06 00:41:09;;;;;;;1.90;1.25;;;;;;;15.64;69.68;102247.81;6014837;29;20612;-68
2022/08/06 00:44:30;;;;;;;2.20;1.13;;;;;;;15.54;70.24;102246.88;6015439;29;20755;-69
2022/08/06 00:47:51;;;;;;;1.95;1.05;;;;;;;15.65;69.96;102246.78;6013997;29;20286;-69
2022/08/06 00:51:13;;;;;;;1.83;1.30;;;;;;;15.50;70.10;102248.13;6013862;29;20234;-68
2022/08/06 00:54:34;;;;;;;4.20;1.20;;;;;;;15.59;70.52;102260.06;6016433;29;20238;-68
2022/08/06 00:57:55;;;;;;;4.10;1.20;;;;;;;15.63;70.23;102258.78;6014954;29;20246;-68
2022/08/06 01:01:16;;;;;;;2.47;1.03;;;;;;;15.59;70.66;102268.22;6016243;29;20238;-68
2022/08/06 01:04:37;;;;;;;2.00;1.00;;;;;;;15.64;70.77;102275.00;6012693;29;20238;-68
2022/08/06 01:08:00;;;;;;;2.70;1.90;;;;;;;15.56;70.75;102282.94;6015910;29;20231;-67
2022/08/06 01:11:21;;;;;;;2.30;1.70;;;;;;;15.56;70.94;102280.22;6017080;29;20337;-69
2022/08/06 01:14:42;;;;;;;2.57;1.00;;;;;;;15.56;71.10;102282.09;6011788;29;20243;-68
2022/08/06 01:18:09;;;;;;;1.70;1.00;;;;;;;15.58;71.55;102286.38;6008981;29;20318;-69
2022/08/06 01:21:50;;;;;;;1.92;1.20;;;;;;;15.57;70.93;102291.94;6008687;29;20231;-68
2022/08/06 01:25:41;;;;;;;3.33;1.02;;;;;;;15.42;71.92;102294.13;6012604;29;20239;-67
2022/08/06 01:29:07;;;;;;;1.73;1.33;;;;;;;15.38;71.56;102295.38;6013257;29;20321;-69
2022/08/06 01:32:32;;;;;;;2.40;0.90;;;;;;;15.36;72.40;102300.09;6017644;29;20261;-68
2022/08/06 01:35:57;;;;;;;2.50;0.83;;;;;;;15.45;71.03;102299.34;6018720;29;20230;-68
2022/08/06 01:39:20;;;;;;;2.57;1.10;;;;;;;15.41;71.86;102310.56;6013788;29;20242;-68
2022/08/06 01:42:43;;;;;;;3.80;0.97;;;;;;;15.52;71.33;102305.94;6016905;29;20226;-68
2022/08/06 01:46:09;;;;;;;2.20;0.90;;;;;;;15.33;72.04;102303.06;6014998;29;20950;-67
2022/08/06 01:49:33;;;;;;;2.30;1.33;;;;;;;15.37;72.24;102309.97;6016750;29;20234;-68
2022/08/06 01:52:56;;;;;;;1.93;1.07;;;;;;;15.29;72.43;102301.59;6015222;29;20273;-69
2022/08/06 01:56:18;;;;;;;1.67;0.90;;;;;;;15.33;71.80;102302.22;6014071;29;20219;-68
2022/08/06 01:59:43;;;;;;;3.10;1.20;;;;;;;15.38;71.92;102299.94;6014883;29;20250;-67
2022/08/06 02:03:10;;;;;;;3.47;1.70;;;;;;;15.47;71.34;102304.63;6015353;29;20242;-67
2022/08/06 02:06:35;;;;;;;2.22;1.15;;;;;;;15.34;72.18;102306.63;6009782;29;20235;-68
2022/08/06 02:09:59;;;;;;;2.10;0.93;;;;;;;15.29;72.42;102308.91;6004239;29;20226;-69
2022/08/06 02:13:23;;;;;;;1.53;0.80;;;;;;;15.10;73.78;102304.19;6025750;29;20230;-68
2022/08/06 02:16:44;;;;;;;2.17;1.20;;;;;;;15.11;73.37;102300.47;6010742;29;20242;-69
2022/08/06 02:20:09;;;;;;;1.60;1.00;;;;;;;15.26;72.84;102301.88;6014477;29;20238;-69
2022/08/06 02:23:31;;;;;;;4.97;1.10;;;;;;;15.23;72.79;102313.00;6012833;29;20238;-69
2022/08/06 02:26:54;;;;;;;2.87;1.23;;;;;;;15.23;72.82;102304.00;6011934;29;20565;-69
2022/08/06 02:30:15;;;;;;;1.07;0.90;;;;;;;15.34;73.03;102310.22;6010597;29;20230;-68
2022/08/06 02:33:37;;;;;;;1.33;1.00;;;;;;;15.21;73.02;102309.53;6015172;29;20227;-68
2022/08/06 02:37:06;;;;;;;2.40;0.90;;;;;;;15.13;73.62;102309.34;6015121;29;20227;-68
2022/08/06 02:40:36;;;;;;;2.73;1.47;;;;;;;14.84;74.64;102310.94;6013006;29;20596;-66
2022/08/06 02:44:03;;;;;;;2.33;1.13;;;;;;;14.89;74.46;102317.72;6013619;29;20234;-68
2022/08/06 02:47:30;;;;;;;1.77;0.90;;;;;;;15.01;74.58;102322.13;6009247;29;20231;-67
2022/08/06 02:50:54;;;;;;;4.57;1.10;;;;;;;15.04;73.94;102326.44;6012497;29;20231;-68
2022/08/06 02:54:22;;;;;;;2.57;1.00;;;;;;;15.10;74.55;102328.63;6011040;29;20235;-68
2022/08/06 02:57:51;;;;;;;1.93;1.00;;;;;;;15.05;74.08;102333.56;6013007;29;20227;-69
2022/08/06 03:01:15;;;;;;;1.83;1.50;;;;;;;15.05;75.00;102329.00;6010642;29;20600;-68
2022/08/06 03:04:39;;;;;;;2.87;1.03;;;;;;;14.94;75.24;102329.03;6010118;29;20231;-68
2022/08/06 03:08:02;;;;;;;3.93;1.10;;;;;;;15.01;75.56;102329.41;6011588;29;20422;-68
2022/08/06 03:11:27;;;;;;;3.83;1.03;;;;;;;14.93;74.89;102329.19;6011869;29;20226;-68
2022/08/06 03:14:49;;;;;;;3.97;1.30;;;;;;;15.06;75.01;102338.03;6011196;29;20234;-68
2022/08/06 03:18:13;;;;;;;1.70;1.60;;;;;;;15.10;74.07;102336.78;6011320;29;20241;-69
2022/08/06 03:21:36;;;;;;;0.80;0.80;;;;;;;14.92;74.55;102343.72;6009307;29;20227;-68
2022/08/06 03:24:59;;;;;;;3.17;1.50;;;;;;;14.84;74.50;102346.22;6010902;29;20692;-68
2022/08/06 03:28:23;;;;;;;2.50;1.30;;;;;;;14.93;74.12;102346.34;6008809;29;20313;-68
2022/08/06 03:31:45;;;;;;;2.00;1.30;;;;;;;14.85;74.70;102354.25;6008826;29;20230;-68
2022/08/06 03:35:07;;;;;;;1.67;1.13;;;;;;;14.90;74.61;102348.44;6011218;29;20833;-69
2022/08/06 03:38:32;;;;;;;1.60;1.40;;;;;;;14.90;74.52;102351.16;6009881;29;20230;-67
2022/08/06 03:41:54;;;;;;;3.73;1.43;;;;;;;14.89;74.47;102353.03;6007432;29;20226;-69
2022/08/06 03:45:17;;;;;;;3.80;1.30;;;;;;;14.79;74.85;102362.06;6011494;29;20239;-67
2022/08/06 03:48:40;;;;;;;5.30;1.40;;;;;;;14.71;75.19;102375.38;6015245;29;20234;-69
2022/08/06 03:52:03;;;;;;;1.40;1.30;;;;;;;14.67;75.69;102368.47;6016934;29;20346;-67
2022/08/06 03:55:27;;;;;;;2.60;1.40;;;;;;;14.69;76.05;102369.22;6016618;29;20625;-67
2022/08/06 03:58:51;;;;;;;2.93;1.23;;;;;;;14.76;75.68;102368.59;6015941;29;21871;-68
2022/08/06 04:02:16;;;;;;;2.30;1.50;;;;;;;14.75;75.90;102371.44;6017356;29;20234;-68
2022/08/06 04:05:38;;;;;;;1.47;0.93;;;;;;;14.67;75.47;102374.78;6014471;29;20613;-68
2022/08/06 04:09:00;;;;;;;1.50;1.00;;;;;;;14.73;75.13;102373.41;6016197;29;20242;-67
2022/08/06 04:12:22;;;;;;;1.47;1.10;;;;;;;14.83;74.95;102380.66;6006886;29;20282;-69
2022/08/06 04:15:43;;;;;;;3.67;1.10;;;;;;;14.93;74.63;102375.34;6015561;29;20246;-67
2022/08/06 04:19:08;;;;;;;3.37;1.17;;;;;;;14.94;74.73;102382.50;6009845;29;20231;-68
2022/08/06 04:22:29;;;;;;;2.50;1.23;;;;;;;14.97;73.99;102387.69;6017339;29;20626;-69
2022/08/06 04:25:53;;;;;;;1.70;1.50;;;;;;;14.88;74.76;102383.00;6015778;29;20246;-69
2022/08/06 04:29:20;;;;;;;3.80;1.33;;;;;;;14.90;75.37;102384.59;6014692;29;20235;-68
2022/08/06 04:32:44;;;;;;;6.43;2.30;;;;;;;15.02;74.87;102397.16;6012944;29;20246;-68
2022/08/06 04:36:08;;;;;;;1.53;1.20;;;;;;;14.88;74.96;102404.72;6013276;29;20661;-68
2022/08/06 04:39:31;;;;;;;1.33;1.20;;;;;;;14.96;74.88;102404.94;6014670;29;20247;-69
2022/08/06 04:42:52;;;;;;;2.57;1.20;;;;;;;15.23;73.81;102407.25;6015583;29;20243;-68
2022/08/06 04:46:13;;;;;;;1.20;1.10;;;;;;;15.09;73.98;102409.25;6012804;29;20235;-68
2022/08/06 04:49:35;;;;;;;3.03;1.87;;;;;;;15.16;73.63;102421.31;6014150;29;20247;-68
2022/08/06 04:53:06;;;;;;;2.07;1.40;;;;;;;15.27;73.94;102431.28;6017207;29;20230;-69
2022/08/06 04:56:27;;;;;;;1.50;1.40;;;;;;;15.28;73.17;102438.47;6012721;29;20242;-69
2022/08/06 04:59:48;;;;;;;1.83;1.33;;;;;;;14.97;73.99;102439.28;6012757;29;20658;-69
2022/08/06 05:03:10;;;;;;;2.27;1.33;;;;;;;15.29;74.02;102440.16;6014079;29;20238;-69
2022/08/06 05:06:39;;;;;;;2.43;1.00;;;;;;;15.37;72.67;102450.41;6014012;29;20227;-68
2022/08/06 05:10:03;;;;;;;2.03;1.40;;;;;;;15.43;72.32;102449.94;6013198;29;20235;-68
2022/08/06 05:13:30;;;;;;;4.70;1.50;;;;;;;15.37;72.95;102456.72;6014956;29;20592;-68
2022/08/06 05:16:52;;;;;;;2.40;1.30;;;;;;;15.45;71.50;102459.69;6014482;29;20246;-68
2022/08/06 05:20:16;;;;;;;2.50;1.57;;;;;;;15.57;71.15;102458.66;6016789;29;20227;-69
2022/08/06 05:23:41;;;;;;;1.63;1.43;;;;;;;15.25;71.85;102467.75;6014180;29;20234;-68
2022/08/06 05:27:04;;;;;;;5.03;1.40;;;;;;;15.45;71.66;102464.25;6015106;29;20239;-68
2022/08/06 05:30:25;;;;;;;2.67;1.60;;;;;;;15.52;70.76;102471.75;6013520;29;20242;-68
2022/08/06 05:33:46;;;;;;;1.57;1.10;;;;;;;15.66;70.03;102478.75;6015118;29;20265;-68
2022/08/06 05:37:06;;;;;;;2.87;1.27;;;;;;;15.80;69.86;102475.72;6011984;29;20700;-67
2022/08/06 05:40:33;;;;;;;2.27;1.67;;;;;;;15.65;70.11;102483.34;6012925;29;20230;-68
2022/08/06 05:43:55;;;;;;;6.63;1.97;;;;;;;16.04;69.42;102483.66;6015633;29;20627;-68
2022/08/06 05:47:28;;;;;;;3.47;2.20;;;;;;;15.89;70.11;102483.97;6009726;29;20536;-68
2022/08/06 05:50:52;;;;;;;1.93;1.40;;;;;;;16.22;69.44;102487.50;6013997;29;20234;-69
2022/08/06 05:54:19;;;;;;;2.00;1.73;;;;;;;16.30;68.89;102493.13;6012566;29;20238;-68
2022/08/06 05:57:45;;;;;;;2.63;1.33;;;;;;;16.34;68.75;102500.03;6014292;29;20238;-69
2022/08/06 06:01:08;;;;;;;4.80;2.20;;;;;;;15.72;70.79;102506.31;6010529;29;20235;-68
2022/08/06 06:04:31;;;;;;;4.50;2.38;;;;;;;15.43;71.26;102509.72;6008658;29;22209;-68
2022/08/06 06:07:55;;;;;;;4.40;2.00;;;;;;;15.66;70.87;102514.97;6015658;29;20239;-68
2022/08/06 06:11:17;;;;;;;3.70;1.42;;;;;;;15.68;70.36;102513.00;6015025;29;20254;-67
2022/08/06 06:14:41;;;;;;;2.70;2.03;;;;;;;15.77;70.18;102514.91;6015055;29;20227;-68
2022/08/06 06:18:14;;;;;;;2.13;1.90;;;;;;;16.32;68.71;102518.34;6012911;29;20238;-69
2022/08/06 06:21:44;;;;;;;2.53;2.23;;;;;;;16.18;68.60;102515.97;6014240;29;20841;-68
2022/08/06 06:25:12;;;;;;;2.77;1.23;;;;;;;16.45;67.30;102525.34;6012258;29;20344;-68
2022/08/06 06:28:38;;;;;;;1.20;1.07;;;;;;;16.72;66.27;102531.13;6013467;29;20267;-68
2022/08/06 06:32:06;;;;;;;2.57;1.33;;;;;;;16.83;66.61;102532.03;6012739;29;20266;-68
2022/08/06 06:35:35;;;;;;;3.05;1.17;;;;;;;16.89;65.64;102526.91;5999266;29;20768;-68
2022/08/06 06:39:04;;;;;;;2.67;1.63;;;;;;;16.81;65.78;102532.16;6009505;29;20241;-68
2022/08/06 06:42:30;;;;;;;3.03;1.15;;;;;;;16.87;66.08;102534.34;6015659;29;20223;-67
2022/08/06 06:45:58;;;;;;;3.47;1.63;;;;;;;16.82;65.55;102524.84;6002890;29;20242;-66
2022/08/06 06:49:25;;;;;;;1.33;0.88;;;;;;;16.86;65.28;102529.00;6004081;29;20235;-66
2022/08/06 06:52:51;;;;;;;5.55;1.60;;;;;;;17.02;65.55;102532.94;6017843;29;20258;-67
2022/08/06 06:56:16;;;;;;;2.40;0.82;;;;;;;17.10;64.73;102532.28;6011673;29;20238;-67
2022/08/06 06:59:42;;;;;;;3.70;1.15;;;;;;;17.23;64.98;102528.31;6011167;29;20239;-67
2022/08/06 07:03:05;;;;;;;3.28;1.20;;;;;;;17.34;64.38;102538.22;6008062;29;20325;-67
2022/08/06 07:06:28;;;;;;;2.65;0.85;;;;;;;16.98;65.41;102539.69;6007595;29;20234;-67
2022/08/06 07:09:51;;;;;;;2.45;1.73;;;;;;;17.10;65.21;102544.06;6011315;29;20230;-67
2022/08/06 07:13:13;;;;;;;2.58;0.88;;;;;;;17.29;64.58;102541.38;6028031;29;20680;-67
2022/08/06 07:16:35;;;;;;;3.03;0.90;;;;;;;17.54;63.92;102550.97;6011619;29;20234;-68
2022/08/06 07:20:01;;;;;;;5.05;1.33;;;;;;;17.67;63.45;102558.91;6012336;29;20234;-66
2022/08/06 07:23:23;;;;;;;1.95;0.88;;;;;;;17.91;63.35;102554.75;6024328;29;20320;-68
2022/08/06 07:26:47;;;;;;;2.45;1.00;;;;;;;17.81;63.12;102558.47;6018930;29;20234;-66
2022/08/06 07:30:11;;;;;;;2.67;0.95;;;;;;;17.80;63.18;102554.00;6015384;29;20247;-67
2022/08/06 07:33:33;;;;;;;2.97;1.02;;;;;;;17.99;63.15;102565.81;6018688;29;20246;-68
2022/08/06 07:36:56;;;;;;;3.25;1.50;;;;;;;18.08;62.58;102561.38;6016040;29;20246;-67
2022/08/06 07:40:23;;;;;;;4.00;1.10;;;;;;;18.08;62.96;102562.22;6019893;29;20516;-68
2022/08/06 07:43:49;;;;;;;1.98;1.05;;;;;;;18.14;62.29;102563.50;6020555;29;20238;-68
2022/08/06 07:47:16;;;;;;;2.35;1.00;;;;;;;18.44;61.51;102568.81;6016316;29;20222;-68
2022/08/06 07:50:39;;;;;;;2.28;1.50;;;;;;;18.41;62.17;102577.28;6019310;29;20265;-68
2022/08/06 07:54:00;;;;;;;3.05;1.17;;;;;;;18.32;62.61;102579.03;6016663;29;20234;-67
2022/08/06 07:57:23;;;;;;;1.95;1.00;;;;;;;18.28;63.60;102572.13;6024357;29;20523;-68
2022/08/06 08:00:47;;;;;;;2.15;1.00;;;;;;;18.34;63.87;102570.69;6017908;29;20322;-66
2022/08/06 08:07:48;;;;;;;4.07;0.85;;;;;;;18.47;60.16;102567.69;6024952;29;20235;-67
2022/08/06 08:11:10;;;;;;;1.90;0.88;;;;;;;18.55;59.40;102571.41;6021164;29;20226;-68
2022/08/06 08:14:31;;;;;;;0.60;0.50;;;;;;;18.48;60.15;102575.75;6029653;29;20226;-68
2022/08/06 08:17:54;;;;;;;0.63;0.60;;;;;;;18.70;57.56;102574.53;6018171;29;20246;-68
2022/08/06 08:21:16;;;;;;;1.63;0.55;;;;;;;18.88;57.32;102578.22;6020430;29;20229;-68
2022/08/06 08:24:39;;;;;;;2.28;1.00;;;;;;;18.50;57.11;102584.66;6021045;29;20262;-67
2022/08/06 08:28:00;;;;;;;3.15;0.82;;;;;;;18.85;57.28;102573.94;6020089;29;20234;-67
2022/08/06 08:31:21;;;;;;;0.80;0.60;;;;;;;18.82;57.24;102576.09;6008568;29;20669;-68
2022/08/06 08:34:43;;;;;;;0.80;0.80;;;;;;;18.68;57.40;102585.63;6016065;29;20671;-68
2022/08/06 08:38:04;;;;;;;1.30;0.65;;;;;;;18.67;57.21;102572.97;6015460;29;20512;-67
2022/08/06 08:41:28;;;;;;;3.25;0.73;;;;;;;18.80;57.24;102584.44;6012795;29;20353;-69
2022/08/06 08:44:50;;;;;;;0.75;0.68;;;;;;;18.90;57.16;102588.00;6015145;29;20270;-68
2022/08/06 08:48:13;;;;;;;1.20;0.65;;;;;;;19.18;55.94;102591.66;6017168;29;20231;-67
2022/08/06 08:51:39;;;;;;;1.65;1.10;;;;;;;19.07;55.02;102589.97;6019663;29;20320;-68
2022/08/06 08:55:03;;;;;;;2.85;0.65;;;;;;;19.39;54.80;102585.97;6016960;29;20344;-68
2022/08/06 08:58:24;;;;;;;2.00;0.55;;;;;;;19.40;55.16;102590.44;6020125;29;20246;-68
2022/08/06 09:01:47;;;;;;;2.45;0.70;;;;;;;19.43;55.76;102596.47;6013258;29;20230;-68
2022/08/06 09:05:09;;;;;;;1.00;0.60;;;;;;;19.43;54.30;102593.75;6018867;29;20254;-67
2022/08/06 09:08:32;;;;;;;0.95;0.73;;;;;;;19.25;54.76;102608.34;6014783;29;20226;-66
2022/08/06 09:11:54;;;;;;;2.67;0.82;;;;;;;19.59;54.35;102595.78;6018040;29;20243;-67
2022/08/06 09:15:16;;;;;;;0.80;0.80;;;;;;;19.90;56.97;102600.78;6012025;29;20239;-67
2022/08/06 09:18:37;;;;;;;2.58;0.88;;;;;;;19.55;53.83;102597.13;6000771;29;20239;-67
2022/08/06 09:22:00;;;;;;;1.90;0.90;;;;;;;19.72;53.59;102602.66;6010505;29;20234;-66
2022/08/06 09:25:39;;;;;;;1.85;0.85;;;;;;;20.49;52.45;102599.31;6014315;29;20242;-68
2022/08/06 09:29:01;;;;;;;0.60;0.60;;;;;;;20.96;48.99;102603.47;6013866;29;20226;-67
2022/08/06 09:32:39;;;;;;;3.53;1.02;;;;;;;21.07;50.06;102607.88;6012045;29;20238;-67
2022/08/06 09:36:02;;;;;;;2.47;0.90;;;;;;;21.32;49.93;102599.59;6010277;29;20234;-68
2022/08/06 09:39:31;;;;;;;2.60;0.63;;;;;;;21.35;48.45;102604.75;6012811;29;20234;-67
2022/08/06 09:42:54;;;;;;;2.58;0.77;;;;;;;20.97;49.01;102609.78;6009949;29;20235;-68
2022/08/06 09:46:18;;;;;;;0.85;0.75;;;;;;;20.48;49.95;102619.56;6005260;29;20339;-67
2022/08/06 09:49:46;;;;;;;4.90;0.85;;;;;;;20.16;51.43;102613.72;6013058;29;20309;-68
2022/08/06 09:53:07;;;;;;;1.92;0.68;;;;;;;19.68;51.06;102627.72;6010450;29;20612;-69
2022/08/06 09:56:28;;;;;;;0.93;0.88;;;;;;;19.71;48.90;102609.13;6001542;29;20239;-68
2022/08/06 09:59:51;;;;;;;1.45;0.80;;;;;;;20.27;48.15;102619.88;6006315;29;20239;-68
2022/08/06 10:03:13;;;;;;;2.38;0.80;;;;;;;20.46;47.32;102621.59;6005773;29;20250;-69
2022/08/06 10:06:34;;;;;;;1.80;0.80;;;;;;;20.59;47.33;102619.28;5999659;29;20341;-68
2022/08/06 10:09:57;;;;;;;1.00;0.65;;;;;;;20.71;47.84;102618.88;5998800;29;20242;-69
2022/08/06 10:13:20;;;;;;;2.50;0.85;;;;;;;20.17;48.98;102621.78;6004525;29;20230;-68
2022/08/06 10:16:43;;;;;;;2.30;1.05;;;;;;;19.76;51.06;102617.75;5996685;29;20270;-68
2022/08/06 10:20:10;;;;;;;1.83;1.00;;;;;;;19.88;50.97;102626.59;5999828;29;20234;-67
2022/08/06 10:23:35;;;;;;;2.58;0.75;;;;;;;20.52;51.37;102621.81;6000033;29;20259;-67
2022/08/06 10:26:57;;;;;;;4.78;0.93;;;;;;;20.92;49.35;102615.78;5997107;29;20330;-68
2022/08/06 10:30:18;;;;;;;2.13;0.70;;;;;;;20.98;48.67;102615.16;5998996;29;20246;-67
2022/08/06 10:33:48;;;;;;;1.17;0.57;;;;;;;21.07;47.95;102608.69;6009192;29;20246;-68
2022/08/06 10:37:10;;;;;;;4.88;1.17;;;;;;;21.45;47.23;102612.84;6006193;29;20629;-67
2022/08/06 10:40:34;;;;;;;2.22;0.90;;;;;;;21.43;44.94;102614.91;6017060;29;20234;-69
2022/08/06 10:43:56;;;;;;;2.35;1.00;;;;;;;21.85;43.77;102610.28;6022726;29;20234;-69
2022/08/06 10:47:17;;;;;;;1.63;1.20;;;;;;;22.00;44.49;102622.38;6018433;29;20226;-68
2022/08/06 10:50:40;;;;;;;3.03;2.33;;;;;;;21.98;44.90;102610.69;6008614;29;20234;-67
2022/08/06 10:54:01;;;;;;;4.00;1.77;;;;;;;21.09;48.41;102625.03;6003278;29;20321;-67
2022/08/06 10:57:23;;;;;;;3.40;2.50;;;;;;;20.61;47.73;102633.72;6016309;29;20729;-68
2022/08/06 11:00:44;;;;;;;2.80;2.00;;;;;;;20.64;46.64;102626.03;6019244;29;20238;-68
2022/08/06 11:04:16;;;;;;;5.07;1.90;;;;;;;20.49;45.59;102613.91;6023303;29;20524;-68
2022/08/06 11:08:03;;;;;;;5.57;2.40;;;;;;;21.42;44.89;102616.78;6018975;29;20230;-68
2022/08/06 11:11:41;;;;;;;15.15;2.17;;;;;;;21.80;45.85;102609.88;6014921;29;20242;-67
2022/08/06 11:15:02;;;;;;;3.17;2.47;;;;;;;22.26;42.26;102602.97;6024242;29;20234;-68
2022/08/06 11:18:23;;;;;;;4.30;2.75;;;;;;;21.84;43.74;102602.22;6022341;29;20243;-68
2022/08/06 11:21:45;;;;;;;6.47;3.03;;;;;;;21.82;43.44;102601.53;6013881;29;20242;-68
2022/08/06 11:25:10;;;;;;;4.93;3.40;;;;;;;22.11;43.89;102605.53;6020300;29;20230;-70
2022/08/06 11:29:02;;;;;;;4.65;2.78;;;;;;;22.72;44.16;102601.47;6013870;29;20230;-69
2022/08/06 11:32:44;;;;;;;5.43;3.03;;;;;;;23.04;42.12;102590.41;6021098;29;20238;-69
2022/08/06 11:36:09;;;;;;;2.83;2.63;;;;;;;23.18;42.59;102588.81;6019911;29;20234;-70
2022/08/06 11:39:30;;;;;;;3.08;2.78;;;;;;;22.91;42.15;102592.84;6013541;29;20258;-68
2022/08/06 11:42:53;;;;;;;4.97;2.67;;;;;;;22.57;41.83;102579.28;6024403;29;20239;-69
2022/08/06 11:46:25;;;;;;;4.20;2.80;;;;;;;22.67;42.18;102596.50;6024310;29;20253;-68
2022/08/06 11:49:47;;;;;;;4.50;2.72;;;;;;;22.10;41.74;102586.47;6018846;29;20333;-68
2022/08/06 11:53:08;;;;;;;2.90;2.40;;;;;;;21.84;42.01;102588.50;6022009;29;20239;-69
2022/08/06 11:56:29;;;;;;;3.22;2.88;;;;;;;23.00;40.80;102589.06;6016596;29;20231;-68
2022/08/06 12:00:16;;;;;;;2.78;2.58;;;;;;;23.00;40.35;102594.56;6016314;29;20243;-69
2022/08/06 12:03:39;;;;;;;2.78;2.50;;;;;;;22.74;40.53;102592.00;6019707;29;20569;-68
2022/08/06 12:07:24;;;;;;;3.35;2.85;;;;;;;23.04;40.78;102591.28;6019887;29;20235;-69
2022/08/06 12:11:19;;;;;;;3.35;3.05;;;;;;;23.24;39.11;102588.97;6014699;29;20333;-68
2022/08/06 12:14:41;;;;;;;4.15;2.88;;;;;;;23.66;38.09;102586.78;6017050;29;20317;-68
2022/08/06 12:18:04;;;;;;;4.88;3.22;;;;;;;23.75;37.81;102596.72;6014349;29;20277;-69
2022/08/06 12:21:26;;;;;;;5.38;3.47;;;;;;;22.12;39.28;102606.41;6017340;29;20258;-69
2022/08/06 12:24:50;;;;;;;3.42;3.20;;;;;;;22.61;40.12;102596.34;6022092;29;20236;-69
2022/08/06 12:28:15;;;;;;;3.40;2.78;;;;;;;23.98;37.54;102596.75;6014281;29;20234;-69
2022/08/06 12:31:40;;;;;;;3.03;2.83;;;;;;;24.30;34.85;102585.50;6018818;29;20262;-70
2022/08/06 12:35:10;;;;;;;3.45;3.15;;;;;;;25.44;34.37;102588.03;6018582;29;20613;-69
2022/08/06 12:38:34;;;;;;;3.15;2.85;;;;;;;27.52;30.18;102580.06;6020900;29;21084;-69
2022/08/06 12:41:55;;;;;;;3.00;2.80;;;;;;;27.28;30.16;102583.31;6015196;29;20317;-69
2022/08/06 12:45:21;;;;;;;2.03;1.90;;;;;;;30.45;26.55;102580.00;6024296;29;20258;-68
2022/08/06 12:48:46;;;;;;;4.57;2.60;;;;;;;30.84;26.31;102578.78;6017792;29;20230;-69
2022/08/06 12:52:13;;;;;;;2.58;2.38;;;;;;;31.65;24.16;102576.69;6006985;29;20242;-67
2022/08/06 12:55:50;;;;;;;2.53;2.33;;;;;;;30.64;24.50;102581.78;6016574;29;20246;-69
2022/08/06 12:59:13;;;;;;;3.30;3.00;;;;;;;32.39;23.32;102573.47;6019651;29;20614;-69
2022/08/06 13:02:34;;;;;;;3.70;3.40;;;;;;;32.15;22.52;102581.78;6021189;29;20239;-69
2022/08/06 13:05:58;;;;;;;2.67;2.47;;;;;;;33.09;22.12;102586.47;6015056;29;20798;-68
2022/08/06 13:09:29;;;;;;;3.60;2.85;;;;;;;33.64;21.70;102573.75;6014171;29;20242;-69
2022/08/06 13:12:55;;;;;;;5.57;3.55;;;;;;;35.23;20.37;102578.06;6015429;29;20230;-68
2022/08/06 13:16:16;;;;;;;3.45;3.17;;;;;;;34.56;20.35;102568.84;6010074;29;20250;-70
2022/08/06 13:19:51;;;;;;;5.43;3.15;;;;;;;33.46;20.36;102582.28;6014636;29;20254;-69
2022/08/06 13:23:14;;;;;;;2.80;2.60;;;;;;;34.17;20.76;102573.44;6013286;29;20239;-69
2022/08/06 13:26:49;;;;;;;2.97;2.63;;;;;;;32.84;21.75;102577.44;6009468;29;20234;-69
2022/08/06 13:30:11;;;;;;;2.92;2.70;;;;;;;32.68;21.90;102569.78;6019090;29;20312;-69
2022/08/06 13:33:32;;;;;;;3.78;3.38;;;;;;;33.26;21.49;102565.06;6015687;29;20316;-69
2022/08/06 13:36:55;;;;;;;3.47;3.17;;;;;;;33.64;21.10;102559.78;6015309;29;20238;-68
2022/08/06 13:40:16;;;;;;;3.95;3.65;;;;;;;32.90;22.29;102560.56;6013029;29;20293;-69
2022/08/06 13:43:41;;;;;;;3.97;3.67;;;;;;;34.43;21.56;102555.13;6017286;29;20249;-69
2022/08/06 13:47:03;;;;;;;3.30;3.10;;;;;;;33.36;22.29;102565.28;6012336;29;20261;-69
2022/08/06 13:50:24;;;;;;;4.53;4.03;;;;;;;33.03;22.80;102563.13;6008665;29;20230;-69
2022/08/06 13:53:46;;;;;;;4.22;3.83;;;;;;;33.43;23.19;102565.13;6010799;29;20280;-69
2022/08/06 13:57:07;;;;;;;7.50;3.78;;;;;;;32.56;22.95;102558.59;5999952;29;20234;-69
2022/08/06 14:00:30;;;;;;;3.90;3.63;;;;;;;31.85;23.70;102554.94;6012031;29;20242;-68
2022/08/06 14:03:50;;;;;;;3.80;3.50;;;;;;;31.03;24.83;102570.28;6010375;29;20250;-69
2022/08/06 14:07:11;;;;;;;4.22;3.58;;;;;;;30.29;26.15;102570.22;6008913;29;20242;-69
2022/08/06 14:10:32;;;;;;;3.58;3.28;;;;;;;30.00;26.24;102562.50;6022787;29;20708;-69
2022/08/06 14:13:54;;;;;;;4.00;3.63;;;;;;;29.66;27.90;102560.97;6012252;29;20250;-70
2022/08/06 14:17:16;;;;;;;3.85;3.53;;;;;;;29.67;27.58;102572.91;6004646;29;20242;-69
2022/08/06 14:20:38;;;;;;;4.53;4.10;;;;;;;29.39;28.79;102556.56;6002393;29;20271;-69
2022/08/06 14:23:59;;;;;;;4.55;4.00;;;;;;;27.46;30.20;102562.34;6007129;29;20239;-71
2022/08/06 14:27:21;;;;;;;4.90;4.50;;;;;;;26.51;32.62;102566.75;6006456;29;20238;-68
2022/08/06 14:30:43;;;;;;;4.68;3.92;;;;;;;26.54;32.44;102565.47;6006569;29;20246;-69
2022/08/06 14:34:05;;;;;;;5.03;4.53;;;;;;;25.59;34.64;102570.41;6011862;29;20313;-69
2022/08/06 14:37:26;;;;;;;4.60;4.20;;;;;;;25.07;36.75;102572.41;6017839;29;20252;-68
2022/08/06 14:48:05;;;;;;;6.63;5.90;;;;;;;24.55;36.91;102578.75;6018903;29;20537;-71
2022/08/06 14:51:28;;;;;;;5.57;5.18;;;;;;;24.29;37.09;102574.69;6014611;29;20510;-70
2022/08/06 14:54:50;;;;;;;6.65;6.13;;;;;;;24.35;36.96;102573.94;6012974;29;20234;-71
2022/08/06 14:58:11;;;;;;;6.00;5.50;;;;;;;24.31;37.12;102562.44;6011707;29;20230;-72
2022/08/06 15:01:32;;;;;;;6.70;5.25;;;;;;;23.97;37.28;102561.13;6012191;29;20258;-71
2022/08/06 15:04:53;;;;;;;6.85;6.25;;;;;;;23.96;38.63;102567.66;6020391;29;20234;-72
2022/08/06 15:08:16;;;;;;;6.82;6.32;;;;;;;24.15;38.66;102575.50;6015807;29;20246;-70
2022/08/06 15:11:37;;;;;;;6.07;5.47;;;;;;;23.51;39.73;102571.22;6018523;29;20657;-71
2022/08/06 15:14:57;;;;;;;12.60;11.43;;;;;;;24.31;39.14;102567.09;6009210;29;20246;-71
2022/08/06 15:18:18;;;;;;;7.53;6.82;;;;;;;25.03;38.20;102563.63;6011682;29;20291;-67
2022/08/06 15:21:39;;;;;;;5.45;4.95;;;;;;;25.76;37.25;102554.47;6015322;29;20226;-70
2022/08/06 15:25:02;;;;;;;11.52;9.90;;;;;;;26.16;36.53;102555.78;6013721;29;20231;-71
2022/08/06 15:28:23;;;;;;;6.45;5.95;;;;;;;26.28;35.28;102544.00;6014378;29;20832;-71
2022/08/06 15:31:44;;;;;;;7.65;6.95;;;;;;;25.36;36.44;102548.41;6016570;29;20242;-71
2022/08/06 15:35:06;;;;;;;6.03;5.43;;;;;;;24.70;37.80;102556.72;6015248;29;20223;-69
2022/08/06 15:38:28;;;;;;;7.20;6.55;;;;;;;24.09;38.06;102551.41;6020264;29;20238;-70
2022/08/06 15:41:50;;;;;;;5.80;5.10;;;;;;;24.19;37.31;102561.16;6015244;29;20243;-69
2022/08/06 15:45:13;;;;;;;13.05;11.98;;;;;;;25.04;36.25;102564.50;6018778;29;20235;-71
2022/08/06 15:48:34;;;;;;;7.22;6.60;;;;;;;25.05;37.07;102560.72;6018650;29;20230;-71
2022/08/06 15:51:56;;;;;;;5.90;5.30;;;;;;;24.54;35.34;102556.88;6018901;29;20625;-71
2022/08/06 15:55:17;;;;;;;9.43;8.57;;;;;;;24.39;36.24;102567.00;6019417;29;20656;-70
2022/08/06 15:58:39;;;;;;;5.18;4.78;;;;;;;24.17;36.63;102563.25;6009860;29;20234;-71